PILOTS ONLINE: 338    ATC ONLINE: 50

EGXW - RAF Waddington

Location

IATA WTN
City Waddington
Country  United Kingdom
Latitude 53° 9' 58" N
Longitude 0° 31' 25" W
Elevation 231 ft
Type Medium Airport

Runways

02/20 9000 ft / 200 ft

Weather

METAR
2014/07/31 10:50
EGXW 311050Z 25010KT 9999 SCT033 OVC250 21/13 Q1012 BLU NOSIG
TAF
2014/07/31 12:04
TAF EGXW 311055Z 3112/0106 25012KT 9999 SCT025 PROB40 
      TEMPO 3112/3117 4000 SHRA BKN022CB PROB40 3117/3121 FEW030CB PROB30 0100/0106 5000 BR BKN002

Outbound flights

Inbound flights